Compton, IL (61318)

1:47 PM CDT on May 22, 2015 (GMT -0500)
West Brooklyn Shady Oaks | | Change Station
CLOSE
Current Station
Personal Weather Station
Location: West Brooklyn, IL
Elevation: 958 ft
Nearby Weather Stations

Elev 958 ft 41.67 °N, 89.17 °W | Updated 6 seconds ago

Clear
Clear
72.9 °F
Feels Like 75 °F
N
4.5
Wind Variable Wind from ENE
Gusts 4.9 mph

Today
High -- | Low -- °F
--% Chance of Precip.
Yesterday
High -- | Low -- °F
Precip. -- in
5:30 AM 8:15 PM
Waxing Crescent, 23% visible
Pressure 30.23 in
Visibility 10.0 miles
Clouds Clear
Heat Index 75 °F
Dew Point 31 °F
Humidity 21%
Rainfall 0.00 in
Snow Depth Not available.
UV 9.0 out of 12
Pollen 9.10 out of 12
Air Quality Not available.
Flu Activity Local Activity
METAR KRPJ 221835Z AUTO 00000KT 10SM CLR 22/02 A3023 RMK AO2 T02170021

More Conditions Fewer Conditions

Pressure 30.23 in
Visibility 10.0 miles
Clouds Clear
Heat Index 75 °F
Dew Point 31 °F
Humidity 21%
Rainfall 0.00 in
Snow Depth Not available.
UV 9.0 out of 12
Pollen 9.10 out of 12
Air Quality Not available.
Flu Activity Local Activity
METAR KRPJ 221835Z AUTO 00000KT 10SM CLR 22/02 A3023 RMK AO2 T02170021

More Conditions Fewer Conditions

10-Day Weather Forecast

Almanac

Astronomy

May. 22, 2015 Rise Set
Actual Time
Civil Twilight
Nautical Twilight
Astronomical Twilight
Moon
Length of Visible Light
Length of Day
Tomorrow will be .
, % of the Moon is Illuminated

Today's Extremes

State Highs State Lows

Community

WunderPhotos

Upload Photos

1,823,276 photos uploaded!

WunderBlogs® & News

Nearby

Air Quality

  Air Quality AQ Index Pollutant
Not available.

Snow Depth

Station Depth Elevation

Earthquake Activity

City Distance Mag. Time & Date
Minimum magnitude displayed is 2.5.

Coastal Water Temperatures

Place Temperature

Stations

Nearby Weather Stations

Station Location Temp. Windchill Dew Point Humidity Wind Precip. Elev Updated Type